Latest Weather Observations for Leigh Creek

IDS60801

Issued at 10:01 am CDT Monday 27 February 2017 (issued every 30 minutes, with the page automatically refreshed every 10 minutes)

About weather observations | Map of weather stations | Latest weather observations for SA | Other Formats
Station Details ID: 017110 Name: LEIGH CREEK AIRPORT Lat: -30.60 Lon: 138.42 Height: 258.8 m
Data from the previous 72 hours. | See also: Recent months at Leigh Creek
Date/Time
CDT
Temp
°C
App
Temp
°C
Dew
Point
°C
Rel
Hum
%
Delta-T
°C
Wind Press
QNH
hPa
Press
MSL
hPa
Rain since
9am
mm
Dir  Spd
km/h
Gust
km/h
Spd
kts
Gust
kts
27/10:00am 30.6 25.0 7.1 23 12.8 ESE 26 35 14 19 1016.1 1014.5 0.0
27/09:30am 29.6 24.0 8.6 27 11.7 ESE 28 35 15 19 1015.9 1014.3 0.0
27/09:18am 29.2 23.6 8.8 28 11.4 ESE 28 33 15 18 1015.9 1014.3 0.0
27/09:00am 26.4 24.7 4.2 24 11.3 S 2 9 1 5 1016.0 1014.4 0.0
27/08:30am 23.5 21.0 1.8 24 10.3 S 4 7 2 4 1016.0 1014.4 0.0
27/08:00am 21.2 18.3 1.5 27 9.2 S 6 9 3 5 1015.9 1014.3 0.0
27/07:30am 18.8 14.8 0.4 29 8.2 S 11 13 6 7 1015.7 1014.1 0.0
27/07:00am 17.4 13.7 -0.3 30 7.7 S 9 11 5 6 1015.6 1014.0 0.0
27/06:30am 18.3 14.9 -0.5 28 8.2 S 7 9 4 5 1015.3 1013.7 0.0
27/06:00am 17.5 13.3 -0.7 29 7.9 SE 11 11 6 6 1015.4 1013.8 0.0
27/05:30am 18.2 13.3 -0.6 28 8.2 ESE 15 17 8 9 1015.2 1013.6 0.0
27/05:00am 17.4 13.6 -0.8 29 7.8 SSE 9 13 5 7 1015.1 1013.5 0.0
27/04:30am 18.8 15.0 -0.6 27 8.5 SE 9 13 5 7 1015.1 1013.5 0.0
27/04:00am 17.9 13.6 -1.3 27 8.2 ESE 11 13 6 7 1015.0 1013.4 0.0
27/03:30am 18.0 12.9 -1.8 26 8.4 ESE 15 15 8 8 1015.1 1013.5 0.0
27/03:00am 17.5 12.4 -1.7 27 8.1 ESE 15 17 8 9 1015.3 1013.7 0.0
27/02:30am 17.4 13.1 -1.8 27 8.1 ESE 11 13 6 7 1015.7 1014.1 0.0
27/02:00am 19.0 16.1 -1.4 25 8.8 ESE 4 9 2 5 1016.1 1014.5 0.0
27/01:30am 19.1 15.6 -1.4 25 8.8 ESE 7 11 4 6 1016.4 1014.8 0.0
27/01:00am 19.8 16.2 -1.9 23 9.3 ESE 7 9 4 5 1016.3 1014.7 0.0
27/12:30am 20.6 17.1 -1.2 23 9.6 ESE 7 9 4 5 1016.3 1014.7 0.0
27/12:00am 19.2 17.0 -1.3 25 8.9 CALM 0 0 0 0 1016.3 1014.7 0.0
 
Date/Time
CDT
Temp
°C
App
Temp
°C
Dew
Point
°C
Rel
Hum
%
Delta-T
°C
Wind Press
QNH
hPa
Press
MSL
hPa
Rain since
9am
mm
Dir  Spd
km/h
Gust
km/h
Spd
kts
Gust
kts
26/11:30pm 21.2 17.3 -1.3 22 9.9 ESE 9 11 5 6 1016.1 1014.5 0.0
26/11:00pm 22.5 18.6 -1.6 20 10.7 ESE 9 11 5 6 1016.2 1014.6 0.0
26/10:30pm 22.6 18.7 -1.5 20 10.7 ESE 9 13 5 7 1016.1 1014.5 0.0
26/10:00pm 23.9 19.6 -1.8 18 11.5 ESE 11 13 6 7 1016.0 1014.4 0.0
26/09:30pm 26.3 22.0 -1.5 16 12.7 SE 11 17 6 9 1015.8 1014.2 0.0
26/09:00pm 27.2 22.4 -2.6 14 13.5 SE 13 19 7 10 1015.5 1013.9 0.0
26/08:30pm 28.0 23.3 -2.0 14 13.8 SE 13 19 7 10 1015.1 1013.5 0.0
26/08:00pm 28.9 24.0 -3.3 12 14.6 SE 13 20 7 11 1014.9 1013.3 0.0
26/07:30pm 30.3 25.5 -2.2 12 15.1 SE 13 20 7 11 1014.6 1013.0 0.0
26/07:00pm 31.4 27.0 -2.6 11 15.9 SE 11 20 6 11 1014.4 1012.8 0.0
26/06:30pm 31.7 26.6 -2.3 11 16.0 SE 15 24 8 13 1014.2 1012.6 0.0
26/06:00pm 31.9 26.8 -2.2 11 16.1 SSE 15 24 8 13 1014.1 1012.5 0.0
26/05:30pm 33.1 30.2 -1.3 11 16.6 S 4 9 2 5 1014.0 1012.4 0.0
26/05:00pm 32.3 27.6 -1.9 11 16.3 ESE 13 17 7 9 1014.1 1012.5 0.0
26/04:30pm 31.9 27.9 -2.2 11 16.1 SW 9 20 5 11 1014.2 1012.6 0.0
26/04:00pm 32.0 27.8 -0.9 12 15.9 SSE 11 22 6 12 1014.4 1012.8 0.0
26/03:30pm 31.8 28.3 -1.1 12 15.8 SE 7 17 4 9 1014.7 1013.1 0.0
26/03:00pm 31.1 26.8 -1.6 12 15.5 NE 11 19 6 10 1015.2 1013.6 0.0
26/02:30pm 30.8 26.6 -0.8 13 15.1 SE 11 20 6 11 1015.8 1014.2 0.0
26/02:00pm 30.4 26.3 -0.1 14 14.8 E 11 20 6 11 1016.1 1014.5 0.0
26/01:30pm 29.5 25.1 0.2 15 14.1 ESE 13 24 7 13 1016.4 1014.8 0.0
26/01:00pm 28.6 25.1 1.2 17 13.4 ESE 9 20 5 11 1016.9 1015.3 0.0
26/12:30pm 28.6 23.9 1.2 17 13.4 E 15 28 8 15 1017.2 1015.6 0.0
26/12:00pm 27.6 23.1 1.9 19 12.6 E 15 26 8 14 1017.6 1016.0 0.0
26/11:30am 27.5 21.8 2.6 20 12.4 ESE 22 30 12 16 1017.8 1016.2 0.0
26/11:00am 26.5 20.7 2.4 21 11.9 ESE 22 33 12 18 1017.9 1016.3 0.0
26/10:30am 25.8 19.4 3.1 23 11.2 ESE 26 35 14 19 1017.9 1016.3 0.0
26/10:00am 24.6 17.8 3.3 25 10.5 ESE 28 37 15 20 1017.8 1016.2 0.0
26/09:30am 23.5 16.0 3.4 27 9.9 ESE 32 39 17 21 1017.8 1016.2 0.0
26/09:00am 22.7 15.6 3.3 28 9.4 ESE 30 39 16 21 1017.6 1016.0 0.0
26/08:56am 22.5 16.9 3.6 29 9.3 ESE 22 39 12 21 1017.6 1016.0 0.0
26/08:30am 20.7 19.0 3.9 33 8.2 SSE 2 9 1 5 1017.7 1016.1 0.0
26/08:00am 17.9 16.6 4.1 40 6.6 CALM 0 0 0 0 1017.8 1016.2 0.0
26/07:30am 16.5 15.0 3.2 41 6.2 CALM 0 0 0 0 1017.6 1016.0 0.0
26/07:00am 16.0 14.5 3.1 42 6.0 CALM 0 6 0 3 1017.2 1015.6 0.0
26/06:30am 17.4 14.7 2.6 37 6.8 ESE 6 11 3 6 1017.0 1015.4 0.0
26/06:00am 19.8 16.6 3.1 33 7.9 SE 9 15 5 8 1016.9 1015.3 0.0
26/05:30am 19.2 16.1 3.4 35 7.5 SE 9 13 5 7 1016.4 1014.8 0.0
26/05:00am 20.1 16.7 3.8 34 7.9 SE 11 19 6 10 1016.2 1014.6 0.0
26/04:30am 20.0 16.9 3.7 34 7.8 S 9 11 5 6 1016.3 1014.7 0.0
26/04:00am 19.3 16.5 3.1 34 7.7 S 7 11 4 6 1016.4 1014.8 0.0
26/03:30am 20.4 16.8 3.2 32 8.2 S 11 15 6 8 1016.4 1014.8 0.0
26/03:00am 21.2 17.2 3.0 30 8.7 S 13 17 7 9 1016.6 1014.9 0.0
26/02:30am 22.2 17.8 2.8 28 9.3 S 15 20 8 11 1016.7 1015.0 0.0
26/02:00am 20.4 16.3 2.3 30 8.5 SSW 13 15 7 8 1016.9 1015.3 0.0
26/01:30am 21.4 18.1 2.2 28 9.1 SSE 9 15 5 8 1017.1 1015.5 0.0
26/01:00am 20.6 17.5 1.5 28 8.9 SSE 7 13 4 7 1017.3 1015.7 0.0
26/12:30am 20.1 18.0 1.5 29 8.6 SE 2 7 1 4 1017.6 1016.0 0.0
26/12:00am 22.3 19.4 1.3 25 9.8 SSE 6 13 3 7 1017.8 1016.2 0.0
 
Date/Time
CDT
Temp
°C
App
Temp
°C
Dew
Point
°C
Rel
Hum
%
Delta-T
°C
Wind Press
QNH
hPa
Press
MSL
hPa
Rain since
9am
mm
Dir  Spd
km/h
Gust
km/h
Spd
kts
Gust
kts
25/11:30pm 23.7 19.5 1.4 23 10.5 SE 13 19 7 10 1017.9 1016.3 0.0
25/11:00pm 23.8 18.5 2.0 24 10.5 ESE 19 20 10 11 1018.0 1016.4 0.0
25/10:30pm 24.3 19.1 2.5 24 10.6 ESE 19 22 10 12 1018.0 1016.4 0.0
25/10:00pm 24.6 20.1 2.1 23 10.9 ESE 15 19 8 10 1017.9 1016.3 0.0
25/09:30pm 25.9 21.1 2.6 22 11.4 SE 17 24 9 13 1017.6 1016.0 0.0
25/09:00pm 26.0 21.2 2.7 22 11.5 ESE 17 24 9 13 1017.3 1015.7 0.0
25/08:30pm 26.8 21.5 2.0 20 12.1 ESE 19 24 10 13 1017.1 1015.5 0.0
25/08:00pm 27.7 22.2 2.0 19 12.7 ESE 20 28 11 15 1016.9 1015.3 0.0
25/07:30pm 28.8 23.3 2.1 18 13.3 ESE 20 28 11 15 1016.7 1015.0 0.0
25/07:00pm 29.6 23.9 2.8 18 13.6 ESE 22 35 12 19 1016.6 1014.9 0.0
25/06:30pm 30.2 25.4 2.5 17 14.0 SE 17 30 9 16 1016.6 1014.9 0.0
25/06:00pm 30.8 26.8 3.0 17 14.2 SSE 13 26 7 14 1016.8 1015.1 0.0
25/05:30pm 30.6 25.7 1.9 16 14.4 SSE 17 26 9 14 1016.8 1015.1 0.0
25/05:00pm 31.5 27.1 2.7 16 14.7 SSE 15 24 8 13 1017.0 1015.4 0.0
25/04:30pm 31.0 26.5 2.3 16 14.5 SSE 15 26 8 14 1017.2 1015.6 0.0
25/04:00pm 31.1 26.6 2.3 16 14.6 SSE 15 26 8 14 1017.4 1015.8 0.0
25/03:30pm 31.8 26.3 2.0 15 15.1 SSW 20 37 11 20 1017.5 1015.9 0.0
25/03:00pm 30.9 27.4 1.3 15 14.7 SSE 9 30 5 16 1018.0 1016.4 0.0
25/02:30pm 30.6 26.1 1.9 16 14.4 S 15 28 8 15 1018.4 1016.8 0.0
25/02:00pm 30.0 26.8 3.1 18 13.7 SE 9 24 5 13 1018.6 1017.0 0.0
25/01:30pm 29.7 25.0 2.9 18 13.6 SE 17 32 9 17 1019.0 1017.4 0.0
25/01:00pm 28.3 24.7 3.2 20 12.7 SSE 11 20 6 11 1019.6 1018.0 0.0
25/12:30pm 28.5 24.2 3.4 20 12.7 SE 15 26 8 14 1020.1 1018.5 0.0
25/12:00pm 27.2 22.4 4.9 24 11.5 E 19 28 10 15 1020.5 1019.0 0.0
25/11:30am 27.1 23.1 4.8 24 11.5 ESE 15 22 8 12 1020.9 1019.3 0.0
25/11:00am 26.6 22.1 6.1 27 10.8 ESE 19 26 10 14 1021.0 1019.4 0.0
25/10:30am 25.8 20.6 5.4 27 10.5 ESE 22 30 12 16 1021.1 1019.5 0.0
25/10:00am 25.1 19.2 5.8 29 10.0 ESE 26 35 14 19 1021.1 1019.5 0.0
25/09:30am 24.1 20.9 6.8 33 9.0 SE 13 24 7 13 1021.1 1019.5 0.0
25/09:00am 22.1 18.4 6.3 36 8.1 SE 15 20 8 11 1021.1 1019.5 0.0
25/08:30am 21.2 16.6 6.7 39 7.4 ESE 20 28 11 15 1021.1 1019.5 0.0
25/08:00am 20.0 17.1 6.7 42 6.8 SE 11 17 6 9 1021.0 1019.4 0.0
25/07:30am 18.2 16.5 6.1 45 6.0 SE 4 9 2 5 1020.7 1019.1 0.0
25/07:00am 18.5 16.3 6.0 44 6.2 SSE 7 11 4 6 1020.4 1018.9 0.0
25/06:30am 18.9 16.2 5.4 41 6.7 SSE 9 13 5 7 1020.2 1018.6 0.0
25/06:00am 20.1 16.6 5.4 38 7.3 SSE 13 20 7 11 1019.9 1018.3 0.0
25/05:30am 20.2 16.5 4.7 36 7.6 SSE 13 20 7 11 1019.7 1018.1 0.0
25/05:00am 20.3 17.4 4.4 35 7.8 SSE 9 20 5 11 1019.6 1018.0 0.0
25/04:30am 20.8 17.8 4.0 33 8.2 SE 9 20 5 11 1019.5 1017.9 0.0
25/04:00am 20.8 18.2 4.0 33 8.2 SE 7 17 4 9 1019.5 1017.9 0.0
25/03:30am 21.7 17.9 3.9 31 8.7 SE 13 24 7 13 1019.5 1017.9 0.0
25/03:00am 21.9 17.3 3.6 30 8.9 SE 17 26 9 14 1019.5 1017.9 0.0
25/02:30am 22.3 18.0 3.4 29 9.2 SE 15 22 8 12 1019.6 1018.0 0.0
25/02:00am 21.8 18.7 3.5 30 8.9 ESE 9 15 5 8 1019.8 1018.2 0.0
25/01:30am 22.6 18.8 3.7 29 9.3 SE 13 24 7 13 1020.0 1018.4 0.0
25/01:00am 22.4 19.5 4.5 31 8.9 SE 9 15 5 8 1020.4 1018.9 0.0
25/12:30am 21.4 17.8 10.6 50 6.0 SSW 20 26 11 14 1020.3 1018.8 0.0
25/12:00am 21.9 18.0 10.7 49 6.2 SSW 22 28 12 15 1020.4 1018.9 0.0
 
Date/Time
CDT
Temp
°C
App
Temp
°C
Dew
Point
°C
Rel
Hum
%
Delta-T
°C
Wind Press
QNH
hPa
Press
MSL
hPa
Rain since
9am
mm
Dir  Spd
km/h
Gust
km/h
Spd
kts
Gust
kts
24/11:30pm 22.4 18.7 10.2 46 6.7 SSW 20 26 11 14 1020.2 1018.6 0.0
24/11:00pm 23.4 19.3 10.1 43 7.4 SSW 22 28 12 15 1020.2 1018.6 0.0
24/10:30pm 24.3 19.6 9.1 38 8.3 SSW 24 32 13 17 1020.3 1018.8 0.0
24/10:00pm 25.0 19.8 8.9 36 8.8 SSW 26 33 14 18 1020.2 1018.6 0.0
24/09:30pm 25.7 20.1 8.7 34 9.3 SSW 28 35 15 19 1020.1 1018.5 0.0
24/09:00pm 26.7 21.3 8.2 31 10.1 SSW 26 39 14 21 1019.9 1018.3 0.0
24/08:30pm 27.6 21.4 8.0 29 10.7 SSW 30 39 16 21 1019.7 1018.1 0.0
24/08:10pm 28.5 24.2 7.7 27 11.4 S 20 41 11 22 1019.3 1017.7 0.0
24/08:00pm 29.3 25.9 6.0 23 12.4 S 13 22 7 12 1019.3 1017.7 0.0
24/07:30pm 30.7 27.6 3.7 18 13.9 SSE 9 17 5 9 1019.0 1017.4 0.0
24/07:00pm 31.5 27.2 3.5 17 14.5 S 15 24 8 13 1018.9 1017.3 0.0
24/06:30pm 32.3 27.9 5.0 18 14.5 S 17 24 9 13 1018.7 1017.1 0.0
24/06:00pm 32.7 28.0 6.1 19 14.4 S 20 35 11 19 1018.7 1017.1 0.0
24/05:30pm 32.6 26.4 6.0 19 14.4 SSW 28 41 15 22 1018.7 1017.1 0.0
24/05:00pm 32.8 27.7 6.2 19 14.5 S 22 33 12 18 1018.7 1017.1 0.0
24/04:30pm 33.0 26.8 6.3 19 14.6 SSW 28 46 15 25 1018.8 1017.2 0.0
24/04:25pm 33.3 27.0 5.8 18 14.9 SSW 28 46 15 25 1018.8 1017.2 0.0
24/04:00pm 33.1 27.9 5.6 18 14.9 SSW 22 43 12 23 1019.2 1017.6 0.0
24/03:45pm 33.9 29.6 7.0 19 14.9 SSW 19 48 10 26 1019.2 1017.6 0.0
24/03:30pm 33.1 31.0 5.6 18 14.8 SSE 6 17 3 9 1019.5 1017.9 0.0
24/03:00pm 32.3 30.6 5.7 19 14.3 NE 4 11 2 6 1019.9 1018.3 0.0
24/02:30pm 31.6 29.1 6.6 21 13.6 WSW 9 20 5 11 1020.3 1018.8 0.0
24/02:00pm 32.0 28.5 7.0 21 13.7 SE 15 35 8 19 1020.7 1019.1 0.0
24/01:30pm 30.6 26.3 7.7 24 12.6 ESE 20 33 11 18 1021.1 1019.5 0.0
24/01:00pm 30.5 26.9 8.3 25 12.4 SE 17 28 9 15 1021.5 1019.9 0.0
24/12:30pm 30.3 26.4 8.7 26 12.1 ESE 19 28 10 15 1021.8 1020.2 0.0
24/12:00pm 28.8 23.8 7.9 27 11.4 ESE 24 32 13 17 1022.1 1020.5 0.0
24/11:30am 28.3 22.3 8.6 29 10.9 ESE 30 39 16 21 1022.3 1020.7 0.0
24/11:00am 27.5 21.1 9.3 32 10.2 ESE 33 43 18 23 1022.3 1020.7 0.0
24/10:30am 27.6 22.7 9.9 33 10.0 ESE 26 35 14 19 1022.5 1020.9 0.0

Other Formats:

Comma delimited format used in spreadsheet applications
http://www.bom.gov.au/fwo/IDS60801/IDS60801.94674.axf

JavaScript Object Notation format (JSON) in row-major order
http://www.bom.gov.au/fwo/IDS60801/IDS60801.94674.json